sensor_id;sensor_type;location;lat;lon;timestamp;P1;durP1;ratioP1;P2;durP2;ratioP2
70545;SDS011;58098;51.680;5.134;2023-04-24T00:00:19;31.53;;;17.50;;
70545;SDS011;58098;51.680;5.134;2023-04-24T00:02:45;28.93;;;16.40;;
70545;SDS011;58098;51.680;5.134;2023-04-24T00:05:14;26.15;;;14.43;;
70545;SDS011;58098;51.680;5.134;2023-04-24T00:07:42;33.70;;;18.08;;
70545;SDS011;58098;51.680;5.134;2023-04-24T00:10:10;36.42;;;20.20;;
70545;SDS011;58098;51.680;5.134;2023-04-24T00:12:36;41.05;;;20.05;;
70545;SDS011;58098;51.680;5.134;2023-04-24T00:15:01;42.83;;;20.10;;
70545;SDS011;58098;51.680;5.134;2023-04-24T00:17:27;44.90;;;21.13;;
70545;SDS011;58098;51.680;5.134;2023-04-24T00:19:52;47.57;;;22.27;;
70545;SDS011;58098;51.680;5.134;2023-04-24T00:22:23;52.55;;;26.23;;
70545;SDS011;58098;51.680;5.134;2023-04-24T00:24:49;46.47;;;21.50;;
70545;SDS011;58098;51.680;5.134;2023-04-24T00:27:15;52.35;;;23.92;;
70545;SDS011;58098;51.680;5.134;2023-04-24T00:29:40;50.87;;;24.87;;
70545;SDS011;58098;51.680;5.134;2023-04-24T00:32:05;53.60;;;26.03;;
70545;SDS011;58098;51.680;5.134;2023-04-24T00:34:31;57.80;;;25.20;;
70545;SDS011;58098;51.680;5.134;2023-04-24T00:36:57;50.10;;;22.55;;
70545;SDS011;58098;51.680;5.134;2023-04-24T00:39:22;50.77;;;23.83;;
70545;SDS011;58098;51.680;5.134;2023-04-24T00:41:48;49.40;;;22.63;;
70545;SDS011;58098;51.680;5.134;2023-04-24T00:44:13;53.63;;;24.43;;
70545;SDS011;58098;51.680;5.134;2023-04-24T00:46:39;56.05;;;27.50;;
70545;SDS011;58098;51.680;5.134;2023-04-24T00:49:05;54.85;;;24.95;;
70545;SDS011;58098;51.680;5.134;2023-04-24T00:51:31;46.97;;;22.50;;
70545;SDS011;58098;51.680;5.134;2023-04-24T00:53:57;58.92;;;28.92;;
70545;SDS011;58098;51.680;5.134;2023-04-24T00:56:23;54.72;;;26.98;;
70545;SDS011;58098;51.680;5.134;2023-04-24T00:58:49;49.50;;;23.30;;
70545;SDS011;58098;51.680;5.134;2023-04-24T01:01:14;44.03;;;21.85;;
70545;SDS011;58098;51.680;5.134;2023-04-24T01:03:40;45.47;;;22.90;;
70545;SDS011;58098;51.680;5.134;2023-04-24T01:06:06;46.37;;;22.13;;
70545;SDS011;58098;51.680;5.134;2023-04-24T01:08:31;49.35;;;24.20;;
70545;SDS011;58098;51.680;5.134;2023-04-24T01:10:58;52.15;;;24.05;;
70545;SDS011;58098;51.680;5.134;2023-04-24T01:13:23;56.67;;;26.40;;
70545;SDS011;58098;51.680;5.134;2023-04-24T01:15:49;47.47;;;23.40;;
70545;SDS011;58098;51.680;5.134;2023-04-24T01:18:14;57.23;;;28.43;;
70545;SDS011;58098;51.680;5.134;2023-04-24T01:20:40;49.07;;;25.20;;
70545;SDS011;58098;51.680;5.134;2023-04-24T01:23:08;52.45;;;26.90;;
70545;SDS011;58098;51.680;5.134;2023-04-24T01:25:34;57.27;;;28.10;;
70545;SDS011;58098;51.680;5.134;2023-04-24T01:28:01;55.50;;;27.60;;
70545;SDS011;58098;51.680;5.134;2023-04-24T01:30:26;52.95;;;27.20;;
70545;SDS011;58098;51.680;5.134;2023-04-24T01:32:52;49.17;;;24.87;;
70545;SDS011;58098;51.680;5.134;2023-04-24T01:35:18;48.22;;;25.35;;
70545;SDS011;58098;51.680;5.134;2023-04-24T01:37:44;49.28;;;24.88;;
70545;SDS011;58098;51.680;5.134;2023-04-24T01:40:10;42.95;;;22.58;;
70545;SDS011;58098;51.680;5.134;2023-04-24T01:42:36;41.13;;;22.67;;
70545;SDS011;58098;51.680;5.134;2023-04-24T01:45:02;37.85;;;20.05;;
70545;SDS011;58098;51.680;5.134;2023-04-24T01:47:30;36.30;;;19.80;;
70545;SDS011;58098;51.680;5.134;2023-04-24T01:49:56;42.55;;;21.27;;
70545;SDS011;58098;51.680;5.134;2023-04-24T01:52:22;38.67;;;21.20;;
70545;SDS011;58098;51.680;5.134;2023-04-24T01:54:47;45.83;;;24.27;;
70545;SDS011;58098;51.680;5.134;2023-04-24T01:57:13;35.60;;;20.47;;
70545;SDS011;58098;51.680;5.134;2023-04-24T01:59:41;44.45;;;23.63;;
70545;SDS011;58098;51.680;5.134;2023-04-24T02:02:06;43.13;;;23.00;;
70545;SDS011;58098;51.680;5.134;2023-04-24T02:04:31;53.47;;;26.83;;
70545;SDS011;58098;51.680;5.134;2023-04-24T02:06:58;43.53;;;23.92;;
70545;SDS011;58098;51.680;5.134;2023-04-24T02:09:23;42.83;;;24.40;;
70545;SDS011;58098;51.680;5.134;2023-04-24T02:11:48;49.10;;;27.80;;
70545;SDS011;58098;51.680;5.134;2023-04-24T02:14:14;48.97;;;25.90;;
70545;SDS011;58098;51.680;5.134;2023-04-24T02:16:39;46.90;;;24.13;;
70545;SDS011;58098;51.680;5.134;2023-04-24T02:19:05;45.57;;;24.63;;
70545;SDS011;58098;51.680;5.134;2023-04-24T02:21:30;40.50;;;22.90;;
70545;SDS011;58098;51.680;5.134;2023-04-24T02:23:56;46.97;;;26.30;;
70545;SDS011;58098;51.680;5.134;2023-04-24T02:26:21;48.03;;;25.00;;
70545;SDS011;58098;51.680;5.134;2023-04-24T02:28:47;45.20;;;23.87;;
70545;SDS011;58098;51.680;5.134;2023-04-24T02:31:12;48.07;;;26.27;;
70545;SDS011;58098;51.680;5.134;2023-04-24T02:33:37;45.23;;;26.43;;
70545;SDS011;58098;51.680;5.134;2023-04-24T02:36:03;48.17;;;26.50;;
70545;SDS011;58098;51.680;5.134;2023-04-24T02:38:28;47.53;;;24.38;;
70545;SDS011;58098;51.680;5.134;2023-04-24T02:40:54;43.43;;;23.57;;
70545;SDS011;58098;51.680;5.134;2023-04-24T02:43:20;39.50;;;23.10;;
70545;SDS011;58098;51.680;5.134;2023-04-24T02:45:45;39.87;;;20.70;;
70545;SDS011;58098;51.680;5.134;2023-04-24T02:48:11;41.73;;;22.10;;
70545;SDS011;58098;51.680;5.134;2023-04-24T02:50:36;50.40;;;24.33;;
70545;SDS011;58098;51.680;5.134;2023-04-24T02:53:01;57.57;;;30.47;;
70545;SDS011;58098;51.680;5.134;2023-04-24T02:55:27;47.90;;;23.67;;
70545;SDS011;58098;51.680;5.134;2023-04-24T02:57:52;59.23;;;29.17;;
70545;SDS011;58098;51.680;5.134;2023-04-24T03:00:18;45.80;;;23.87;;
70545;SDS011;58098;51.680;5.134;2023-04-24T03:02:44;52.63;;;29.40;;
70545;SDS011;58098;51.680;5.134;2023-04-24T03:05:10;52.10;;;26.08;;
70545;SDS011;58098;51.680;5.134;2023-04-24T03:07:36;51.88;;;28.70;;
70545;SDS011;58098;51.680;5.134;2023-04-24T03:10:02;45.87;;;22.87;;
70545;SDS011;58098;51.680;5.134;2023-04-24T03:12:28;50.83;;;23.80;;
70545;SDS011;58098;51.680;5.134;2023-04-24T03:14:53;47.53;;;22.17;;
70545;SDS011;58098;51.680;5.134;2023-04-24T03:17:19;50.67;;;26.33;;
70545;SDS011;58098;51.680;5.134;2023-04-24T03:19:44;52.90;;;24.03;;
70545;SDS011;58098;51.680;5.134;2023-04-24T03:22:10;48.47;;;22.10;;
70545;SDS011;58098;51.680;5.134;2023-04-24T03:24:36;50.13;;;24.25;;
70545;SDS011;58098;51.680;5.134;2023-04-24T03:27:01;47.70;;;25.17;;
70545;SDS011;58098;51.680;5.134;2023-04-24T03:29:26;42.53;;;20.97;;
70545;SDS011;58098;51.680;5.134;2023-04-24T03:31:52;46.50;;;20.63;;
70545;SDS011;58098;51.680;5.134;2023-04-24T03:34:17;48.77;;;24.97;;
70545;SDS011;58098;51.680;5.134;2023-04-24T03:36:42;51.70;;;27.17;;
70545;SDS011;58098;51.680;5.134;2023-04-24T03:39:08;47.43;;;23.67;;
70545;SDS011;58098;51.680;5.134;2023-04-24T03:41:33;42.33;;;21.90;;
70545;SDS011;58098;51.680;5.134;2023-04-24T03:43:58;39.13;;;18.73;;
70545;SDS011;58098;51.680;5.134;2023-04-24T03:46:24;48.93;;;27.40;;
70545;SDS011;58098;51.680;5.134;2023-04-24T03:48:49;39.50;;;20.80;;
70545;SDS011;58098;51.680;5.134;2023-04-24T03:51:15;40.50;;;21.37;;
70545;SDS011;58098;51.680;5.134;2023-04-24T03:53:40;48.33;;;19.77;;
70545;SDS011;58098;51.680;5.134;2023-04-24T03:56:05;42.57;;;20.80;;
70545;SDS011;58098;51.680;5.134;2023-04-24T03:58:31;43.63;;;22.53;;
70545;SDS011;58098;51.680;5.134;2023-04-24T04:00:56;40.30;;;19.73;;
70545;SDS011;58098;51.680;5.134;2023-04-24T04:03:23;36.23;;;18.03;;
70545;SDS011;58098;51.680;5.134;2023-04-24T04:05:48;36.70;;;18.20;;
70545;SDS011;58098;51.680;5.134;2023-04-24T04:08:13;37.00;;;18.83;;
70545;SDS011;58098;51.680;5.134;2023-04-24T04:10:39;38.40;;;19.63;;
70545;SDS011;58098;51.680;5.134;2023-04-24T04:13:04;37.40;;;20.03;;
70545;SDS011;58098;51.680;5.134;2023-04-24T04:15:31;34.42;;;18.77;;
70545;SDS011;58098;51.680;5.134;2023-04-24T04:17:57;26.85;;;15.10;;
70545;SDS011;58098;51.680;5.134;2023-04-24T04:20:22;25.43;;;13.53;;
70545;SDS011;58098;51.680;5.134;2023-04-24T04:22:47;26.53;;;13.40;;
70545;SDS011;58098;51.680;5.134;2023-04-24T04:25:12;27.50;;;14.00;;
70545;SDS011;58098;51.680;5.134;2023-04-24T04:27:38;25.93;;;11.27;;
70545;SDS011;58098;51.680;5.134;2023-04-24T04:30:04;19.60;;;10.73;;
70545;SDS011;58098;51.680;5.134;2023-04-24T04:32:33;15.18;;;9.88;;
70545;SDS011;58098;51.680;5.134;2023-04-24T04:35:00;12.10;;;7.63;;
70545;SDS011;58098;51.680;5.134;2023-04-24T04:37:29;11.27;;;6.93;;
70545;SDS011;58098;51.680;5.134;2023-04-24T04:39:55;12.25;;;7.75;;
70545;SDS011;58098;51.680;5.134;2023-04-24T04:42:20;8.73;;;6.23;;
70545;SDS011;58098;51.680;5.134;2023-04-24T04:44:45;14.70;;;6.40;;
70545;SDS011;58098;51.680;5.134;2023-04-24T04:47:11;9.45;;;6.65;;
70545;SDS011;58098;51.680;5.134;2023-04-24T04:49:37;9.67;;;5.67;;
70545;SDS011;58098;51.680;5.134;2023-04-24T04:52:03;9.43;;;5.60;;
70545;SDS011;58098;51.680;5.134;2023-04-24T04:54:29;7.97;;;5.17;;
70545;SDS011;58098;51.680;5.134;2023-04-24T04:56:54;7.53;;;5.63;;
70545;SDS011;58098;51.680;5.134;2023-04-24T04:59:20;8.43;;;5.97;;
70545;SDS011;58098;51.680;5.134;2023-04-24T05:01:45;8.70;;;6.60;;
70545;SDS011;58098;51.680;5.134;2023-04-24T05:04:11;9.97;;;6.50;;
70545;SDS011;58098;51.680;5.134;2023-04-24T05:06:36;10.73;;;6.67;;
70545;SDS011;58098;51.680;5.134;2023-04-24T05:09:02;12.75;;;6.78;;
70545;SDS011;58098;51.680;5.134;2023-04-24T05:11:28;11.93;;;6.78;;
70545;SDS011;58098;51.680;5.134;2023-04-24T05:13:54;14.50;;;6.60;;
70545;SDS011;58098;51.680;5.134;2023-04-24T05:16:19;9.67;;;6.27;;
70545;SDS011;58098;51.680;5.134;2023-04-24T05:18:45;10.95;;;6.45;;
70545;SDS011;58098;51.680;5.134;2023-04-24T05:21:10;11.27;;;6.43;;
70545;SDS011;58098;51.680;5.134;2023-04-24T05:23:35;8.47;;;6.47;;
70545;SDS011;58098;51.680;5.134;2023-04-24T05:26:01;12.43;;;8.63;;
70545;SDS011;58098;51.680;5.134;2023-04-24T05:28:27;12.07;;;8.27;;
70545;SDS011;58098;51.680;5.134;2023-04-24T05:30:53;14.77;;;8.45;;
70545;SDS011;58098;51.680;5.134;2023-04-24T05:33:20;8.77;;;6.63;;
70545;SDS011;58098;51.680;5.134;2023-04-24T05:35:47;16.40;;;8.80;;
70545;SDS011;58098;51.680;5.134;2023-04-24T05:38:12;15.67;;;8.20;;
70545;SDS011;58098;51.680;5.134;2023-04-24T05:40:38;16.83;;;8.83;;
70545;SDS011;58098;51.680;5.134;2023-04-24T05:43:03;13.32;;;8.43;;
70545;SDS011;58098;51.680;5.134;2023-04-24T05:45:29;11.27;;;9.00;;
70545;SDS011;58098;51.680;5.134;2023-04-24T05:47:54;14.47;;;9.33;;
70545;SDS011;58098;51.680;5.134;2023-04-24T05:50:20;13.63;;;9.37;;
70545;SDS011;58098;51.680;5.134;2023-04-24T05:52:45;14.80;;;9.07;;
70545;SDS011;58098;51.680;5.134;2023-04-24T05:55:11;14.15;;;9.70;;
70545;SDS011;58098;51.680;5.134;2023-04-24T05:57:36;16.73;;;10.17;;
70545;SDS011;58098;51.680;5.134;2023-04-24T06:00:02;13.43;;;9.47;;
70545;SDS011;58098;51.680;5.134;2023-04-24T06:02:29;17.55;;;11.07;;
70545;SDS011;58098;51.680;5.134;2023-04-24T06:04:57;16.67;;;10.80;;
70545;SDS011;58098;51.680;5.134;2023-04-24T06:07:25;14.50;;;9.73;;
70545;SDS011;58098;51.680;5.134;2023-04-24T06:09:51;12.52;;;6.85;;
70545;SDS011;58098;51.680;5.134;2023-04-24T06:12:17;8.33;;;6.20;;
70545;SDS011;58098;51.680;5.134;2023-04-24T06:14:43;10.05;;;6.38;;
70545;SDS011;58098;51.680;5.134;2023-04-24T06:17:08;10.57;;;6.93;;
70545;SDS011;58098;51.680;5.134;2023-04-24T06:19:33;16.50;;;10.70;;
70545;SDS011;58098;51.680;5.134;2023-04-24T06:21:59;11.43;;;8.13;;
70545;SDS011;58098;51.680;5.134;2023-04-24T06:24:27;17.17;;;10.47;;
70545;SDS011;58098;51.680;5.134;2023-04-24T06:26:53;15.80;;;9.70;;
70545;SDS011;58098;51.680;5.134;2023-04-24T06:29:18;13.83;;;8.53;;
70545;SDS011;58098;51.680;5.134;2023-04-24T06:31:43;14.83;;;8.83;;
70545;SDS011;58098;51.680;5.134;2023-04-24T06:34:08;14.40;;;9.17;;
70545;SDS011;58098;51.680;5.134;2023-04-24T06:36:34;16.97;;;9.50;;
70545;SDS011;58098;51.680;5.134;2023-04-24T06:39:00;16.97;;;9.17;;
70545;SDS011;58098;51.680;5.134;2023-04-24T06:41:26;20.70;;;10.07;;
70545;SDS011;58098;51.680;5.134;2023-04-24T06:43:52;23.77;;;12.10;;
70545;SDS011;58098;51.680;5.134;2023-04-24T06:46:18;29.37;;;15.20;;
70545;SDS011;58098;51.680;5.134;2023-04-24T06:48:43;23.60;;;13.20;;
70545;SDS011;58098;51.680;5.134;2023-04-24T06:51:08;29.47;;;13.43;;
70545;SDS011;58098;51.680;5.134;2023-04-24T06:53:34;32.08;;;12.63;;
70545;SDS011;58098;51.680;5.134;2023-04-24T06:56:00;25.17;;;11.43;;
70545;SDS011;58098;51.680;5.134;2023-04-24T06:58:25;22.10;;;11.60;;
70545;SDS011;58098;51.680;5.134;2023-04-24T07:00:51;22.33;;;13.18;;
70545;SDS011;58098;51.680;5.134;2023-04-24T07:03:16;28.07;;;11.93;;
70545;SDS011;58098;51.680;5.134;2023-04-24T07:05:42;34.10;;;14.55;;
70545;SDS011;58098;51.680;5.134;2023-04-24T07:08:07;32.97;;;13.97;;
70545;SDS011;58098;51.680;5.134;2023-04-24T07:10:33;28.40;;;13.77;;
70545;SDS011;58098;51.680;5.134;2023-04-24T07:13:00;25.73;;;11.30;;
70545;SDS011;58098;51.680;5.134;2023-04-24T07:15:26;21.50;;;10.93;;
70545;SDS011;58098;51.680;5.134;2023-04-24T07:17:51;15.97;;;8.40;;
70545;SDS011;58098;51.680;5.134;2023-04-24T07:20:17;21.87;;;9.57;;
70545;SDS011;58098;51.680;5.134;2023-04-24T07:22:42;19.90;;;9.33;;
70545;SDS011;58098;51.680;5.134;2023-04-24T07:25:08;19.80;;;9.10;;
70545;SDS011;58098;51.680;5.134;2023-04-24T07:27:34;22.57;;;8.80;;
70545;SDS011;58098;51.680;5.134;2023-04-24T07:30:00;15.55;;;6.60;;
70545;SDS011;58098;51.680;5.134;2023-04-24T07:32:26;16.90;;;7.00;;
70545;SDS011;58098;51.680;5.134;2023-04-24T07:34:51;28.33;;;8.40;;
70545;SDS011;58098;51.680;5.134;2023-04-24T07:37:16;21.53;;;7.03;;
70545;SDS011;58098;51.680;5.134;2023-04-24T07:39:42;19.10;;;6.93;;
70545;SDS011;58098;51.680;5.134;2023-04-24T07:42:07;20.63;;;6.53;;
70545;SDS011;58098;51.680;5.134;2023-04-24T07:44:33;22.97;;;6.30;;
70545;SDS011;58098;51.680;5.134;2023-04-24T07:46:58;29.10;;;8.03;;
70545;SDS011;58098;51.680;5.134;2023-04-24T07:49:23;22.58;;;8.45;;
70545;SDS011;58098;51.680;5.134;2023-04-24T07:51:49;17.30;;;7.00;;
70545;SDS011;58098;51.680;5.134;2023-04-24T07:54:15;27.20;;;8.00;;
70545;SDS011;58098;51.680;5.134;2023-04-24T07:56:40;25.30;;;8.10;;
70545;SDS011;58098;51.680;5.134;2023-04-24T07:59:07;33.05;;;8.57;;
70545;SDS011;58098;51.680;5.134;2023-04-24T08:01:34;27.08;;;7.50;;
70545;SDS011;58098;51.680;5.134;2023-04-24T08:04:00;25.43;;;7.83;;
70545;SDS011;58098;51.680;5.134;2023-04-24T08:06:25;25.17;;;7.13;;
70545;SDS011;58098;51.680;5.134;2023-04-24T08:08:55;25.73;;;7.43;;
70545;SDS011;58098;51.680;5.134;2023-04-24T08:11:23;36.20;;;7.65;;
70545;SDS011;58098;51.680;5.134;2023-04-24T08:13:49;38.15;;;6.45;;
70545;SDS011;58098;51.680;5.134;2023-04-24T08:16:15;21.03;;;5.20;;
70545;SDS011;58098;51.680;5.134;2023-04-24T08:18:40;25.23;;;7.10;;
70545;SDS011;58098;51.680;5.134;2023-04-24T08:21:06;19.93;;;5.50;;
70545;SDS011;58098;51.680;5.134;2023-04-24T08:23:31;16.30;;;5.30;;
70545;SDS011;58098;51.680;5.134;2023-04-24T08:25:56;20.37;;;5.80;;
70545;SDS011;58098;51.680;5.134;2023-04-24T08:28:22;21.37;;;5.90;;
70545;SDS011;58098;51.680;5.134;2023-04-24T08:30:48;25.83;;;6.53;;
70545;SDS011;58098;51.680;5.134;2023-04-24T08:33:13;27.20;;;5.63;;
70545;SDS011;58098;51.680;5.134;2023-04-24T08:35:39;22.02;;;5.00;;
70545;SDS011;58098;51.680;5.134;2023-04-24T08:38:05;26.87;;;5.53;;
70545;SDS011;58098;51.680;5.134;2023-04-24T08:40:30;24.73;;;6.43;;
70545;SDS011;58098;51.680;5.134;2023-04-24T08:42:58;20.58;;;5.45;;
70545;SDS011;58098;51.680;5.134;2023-04-24T08:45:24;17.10;;;4.23;;
70545;SDS011;58098;51.680;5.134;2023-04-24T08:47:49;9.48;;;4.43;;
70545;SDS011;58098;51.680;5.134;2023-04-24T08:50:17;16.37;;;4.97;;
70545;SDS011;58098;51.680;5.134;2023-04-24T08:52:42;10.23;;;3.65;;
70545;SDS011;58098;51.680;5.134;2023-04-24T08:55:08;9.43;;;2.87;;
70545;SDS011;58098;51.680;5.134;2023-04-24T08:57:34;12.48;;;3.90;;
70545;SDS011;58098;51.680;5.134;2023-04-24T09:00:01;14.10;;;3.67;;
70545;SDS011;58098;51.680;5.134;2023-04-24T09:02:26;11.07;;;3.60;;
70545;SDS011;58098;51.680;5.134;2023-04-24T09:04:52;11.65;;;3.63;;
70545;SDS011;58098;51.680;5.134;2023-04-24T09:07:19;15.98;;;3.92;;
70545;SDS011;58098;51.680;5.134;2023-04-24T09:09:44;15.70;;;3.37;;
70545;SDS011;58098;51.680;5.134;2023-04-24T09:12:10;10.05;;;3.70;;
70545;SDS011;58098;51.680;5.134;2023-04-24T09:14:36;16.63;;;4.47;;
70545;SDS011;58098;51.680;5.134;2023-04-24T09:17:04;13.98;;;3.80;;
70545;SDS011;58098;51.680;5.134;2023-04-24T09:19:31;11.43;;;3.50;;
70545;SDS011;58098;51.680;5.134;2023-04-24T09:21:56;26.10;;;4.30;;
70545;SDS011;58098;51.680;5.134;2023-04-24T09:24:22;13.10;;;4.07;;
70545;SDS011;58098;51.680;5.134;2023-04-24T09:26:48;12.10;;;4.13;;
70545;SDS011;58098;51.680;5.134;2023-04-24T09:29:17;17.05;;;4.55;;
70545;SDS011;58098;51.680;5.134;2023-04-24T09:31:43;14.10;;;4.13;;
70545;SDS011;58098;51.680;5.134;2023-04-24T09:34:09;12.48;;;4.10;;
70545;SDS011;58098;51.680;5.134;2023-04-24T09:36:36;8.23;;;3.07;;
70545;SDS011;58098;51.680;5.134;2023-04-24T09:39:07;12.57;;;3.35;;
70545;SDS011;58098;51.680;5.134;2023-04-24T09:41:52;8.57;;;3.25;;
70545;SDS011;58098;51.680;5.134;2023-04-24T09:44:22;9.23;;;3.13;;
70545;SDS011;58098;51.680;5.134;2023-04-24T09:46:50;8.85;;;3.15;;
70545;SDS011;58098;51.680;5.134;2023-04-24T09:49:20;7.07;;;2.90;;
70545;SDS011;58098;51.680;5.134;2023-04-24T09:51:47;10.77;;;2.88;;
70545;SDS011;58098;51.680;5.134;2023-04-24T09:54:20;9.70;;;2.80;;
70545;SDS011;58098;51.680;5.134;2023-04-24T09:56:47;11.15;;;3.00;;
70545;SDS011;58098;51.680;5.134;2023-04-24T09:59:14;9.07;;;2.75;;
70545;SDS011;58098;51.680;5.134;2023-04-24T10:01:40;4.73;;;2.37;;
70545;SDS011;58098;51.680;5.134;2023-04-24T10:04:14;11.52;;;2.90;;
70545;SDS011;58098;51.680;5.134;2023-04-24T10:06:42;10.57;;;3.03;;
70545;SDS011;58098;51.680;5.134;2023-04-24T10:09:08;10.20;;;2.60;;
70545;SDS011;58098;51.680;5.134;2023-04-24T10:11:35;3.87;;;2.20;;
70545;SDS011;58098;51.680;5.134;2023-04-24T10:14:01;6.45;;;2.25;;
70545;SDS011;58098;51.680;5.134;2023-04-24T10:16:27;8.13;;;2.10;;
70545;SDS011;58098;51.680;5.134;2023-04-24T10:18:53;8.35;;;2.60;;
70545;SDS011;58098;51.680;5.134;2023-04-24T10:21:19;3.38;;;2.17;;
70545;SDS011;58098;51.680;5.134;2023-04-24T10:23:45;3.73;;;2.00;;
70545;SDS011;58098;51.680;5.134;2023-04-24T10:26:14;3.25;;;1.80;;
70545;SDS011;58098;51.680;5.134;2023-04-24T10:28:45;6.85;;;1.88;;
70545;SDS011;58098;51.680;5.134;2023-04-24T10:31:12;3.28;;;2.03;;
70545;SDS011;58098;51.680;5.134;2023-04-24T10:33:38;4.07;;;1.60;;
70545;SDS011;58098;51.680;5.134;2023-04-24T10:36:07;2.85;;;1.63;;
70545;SDS011;58098;51.680;5.134;2023-04-24T10:38:34;6.60;;;2.30;;
70545;SDS011;58098;51.680;5.134;2023-04-24T10:41:09;3.67;;;2.40;;
70545;SDS011;58098;51.680;5.134;2023-04-24T10:43:41;5.03;;;2.30;;
70545;SDS011;58098;51.680;5.134;2023-04-24T10:46:08;5.80;;;2.07;;
70545;SDS011;58098;51.680;5.134;2023-04-24T10:48:35;3.47;;;2.22;;
70545;SDS011;58098;51.680;5.134;2023-04-24T10:51:00;6.13;;;1.95;;
70545;SDS011;58098;51.680;5.134;2023-04-24T10:53:29;9.63;;;2.50;;
70545;SDS011;58098;51.680;5.134;2023-04-24T11:01:25;6.53;;;2.10;;
70545;SDS011;58098;51.680;5.134;2023-04-24T11:03:55;3.20;;;2.17;;
70545;SDS011;58098;51.680;5.134;2023-04-24T11:06:55;2.80;;;1.70;;
70545;SDS011;58098;51.680;5.134;2023-04-24T11:09:14;4.30;;;2.10;;
70545;SDS011;58098;51.680;5.134;2023-04-24T11:11:44;3.78;;;1.83;;
70545;SDS011;58098;51.680;5.134;2023-04-24T11:14:13;4.30;;;1.65;;
70545;SDS011;58098;51.680;5.134;2023-04-24T11:16:52;12.15;;;2.30;;
70545;SDS011;58098;51.680;5.134;2023-04-24T11:19:20;6.60;;;1.90;;
70545;SDS011;58098;51.680;5.134;2023-04-24T11:21:58;7.13;;;2.13;;
70545;SDS011;58098;51.680;5.134;2023-04-24T11:24:30;4.07;;;2.20;;
70545;SDS011;58098;51.680;5.134;2023-04-24T11:32:41;12.23;;;2.27;;
70545;SDS011;58098;51.680;5.134;2023-04-24T11:35:08;7.90;;;2.00;;
70545;SDS011;58098;51.680;5.134;2023-04-24T11:37:39;5.55;;;1.80;;
70545;SDS011;58098;51.680;5.134;2023-04-24T11:40:06;8.50;;;2.22;;
70545;SDS011;58098;51.680;5.134;2023-04-24T11:42:37;4.88;;;2.00;;
70545;SDS011;58098;51.680;5.134;2023-04-24T11:47:39;8.88;;;2.55;;
70545;SDS011;58098;51.680;5.134;2023-04-24T11:50:06;6.55;;;2.17;;
70545;SDS011;58098;51.680;5.134;2023-04-24T11:52:36;4.45;;;1.70;;
70545;SDS011;58098;51.680;5.134;2023-04-24T11:55:03;4.63;;;2.40;;
70545;SDS011;58098;51.680;5.134;2023-04-24T11:57:29;6.40;;;2.00;;
70545;SDS011;58098;51.680;5.134;2023-04-24T12:00:01;8.35;;;2.50;;
70545;SDS011;58098;51.680;5.134;2023-04-24T12:02:27;5.25;;;2.15;;
70545;SDS011;58098;51.680;5.134;2023-04-24T12:04:53;5.23;;;2.30;;
70545;SDS011;58098;51.680;5.134;2023-04-24T12:07:18;4.95;;;1.77;;
70545;SDS011;58098;51.680;5.134;2023-04-24T12:09:45;2.63;;;2.00;;
70545;SDS011;58098;51.680;5.134;2023-04-24T12:12:11;4.60;;;2.50;;
70545;SDS011;58098;51.680;5.134;2023-04-24T12:14:44;3.22;;;2.10;;
70545;SDS011;58098;51.680;5.134;2023-04-24T12:17:13;6.17;;;2.40;;
70545;SDS011;58098;51.680;5.134;2023-04-24T12:19:44;5.55;;;1.90;;
70545;SDS011;58098;51.680;5.134;2023-04-24T12:22:13;4.82;;;2.05;;
70545;SDS011;58098;51.680;5.134;2023-04-24T12:27:22;3.53;;;2.08;;
70545;SDS011;58098;51.680;5.134;2023-04-24T12:29:57;6.77;;;2.23;;
70545;SDS011;58098;51.680;5.134;2023-04-24T12:32:24;6.38;;;2.03;;
70545;SDS011;58098;51.680;5.134;2023-04-24T12:34:50;4.18;;;2.45;;
70545;SDS011;58098;51.680;5.134;2023-04-24T12:37:19;2.42;;;2.13;;
70545;SDS011;58098;51.680;5.134;2023-04-24T12:42:33;5.35;;;2.30;;
70545;SDS011;58098;51.680;5.134;2023-04-24T12:45:04;5.78;;;2.10;;
70545;SDS011;58098;51.680;5.134;2023-04-24T12:47:33;4.32;;;2.65;;
70545;SDS011;58098;51.680;5.134;2023-04-24T12:49:59;6.68;;;2.50;;
70545;SDS011;58098;51.680;5.134;2023-04-24T12:52:26;3.40;;;2.40;;
70545;SDS011;58098;51.680;5.134;2023-04-24T12:54:53;6.03;;;2.15;;
70545;SDS011;58098;51.680;5.134;2023-04-24T12:57:20;5.47;;;2.13;;
70545;SDS011;58098;51.680;5.134;2023-04-24T12:59:46;6.82;;;2.28;;
70545;SDS011;58098;51.680;5.134;2023-04-24T13:02:11;7.60;;;2.70;;
70545;SDS011;58098;51.680;5.134;2023-04-24T13:04:37;6.37;;;2.73;;
70545;SDS011;58098;51.680;5.134;2023-04-24T13:07:02;11.80;;;2.53;;
70545;SDS011;58098;51.680;5.134;2023-04-24T13:09:28;6.13;;;2.47;;
70545;SDS011;58098;51.680;5.134;2023-04-24T13:11:53;7.50;;;2.40;;
70545;SDS011;58098;51.680;5.134;2023-04-24T13:14:20;4.15;;;2.03;;
70545;SDS011;58098;51.680;5.134;2023-04-24T13:16:45;7.00;;;2.30;;
70545;SDS011;58098;51.680;5.134;2023-04-24T13:19:11;4.90;;;2.20;;
70545;SDS011;58098;51.680;5.134;2023-04-24T13:21:36;7.90;;;2.33;;
70545;SDS011;58098;51.680;5.134;2023-04-24T13:24:01;3.43;;;2.10;;
70545;SDS011;58098;51.680;5.134;2023-04-24T13:26:28;2.83;;;1.60;;
70545;SDS011;58098;51.680;5.134;2023-04-24T13:28:53;4.40;;;2.23;;
70545;SDS011;58098;51.680;5.134;2023-04-24T13:31:19;3.60;;;1.70;;
70545;SDS011;58098;51.680;5.134;2023-04-24T13:33:44;3.57;;;1.90;;
70545;SDS011;58098;51.680;5.134;2023-04-24T13:36:10;6.60;;;2.40;;
70545;SDS011;58098;51.680;5.134;2023-04-24T13:38:35;2.70;;;2.00;;
70545;SDS011;58098;51.680;5.134;2023-04-24T13:41:00;3.40;;;1.83;;
70545;SDS011;58098;51.680;5.134;2023-04-24T13:43:25;7.63;;;2.23;;
70545;SDS011;58098;51.680;5.134;2023-04-24T13:45:51;10.57;;;2.65;;
70545;SDS011;58098;51.680;5.134;2023-04-24T13:48:17;5.50;;;2.30;;
70545;SDS011;58098;51.680;5.134;2023-04-24T13:50:43;6.40;;;1.77;;
70545;SDS011;58098;51.680;5.134;2023-04-24T13:53:09;6.37;;;2.37;;
70545;SDS011;58098;51.680;5.134;2023-04-24T13:55:34;8.30;;;2.35;;
70545;SDS011;58098;51.680;5.134;2023-04-24T13:58:00;6.27;;;2.33;;
70545;SDS011;58098;51.680;5.134;2023-04-24T14:00:26;6.18;;;2.20;;
70545;SDS011;58098;51.680;5.134;2023-04-24T14:02:51;8.53;;;2.37;;
70545;SDS011;58098;51.680;5.134;2023-04-24T14:05:16;6.47;;;2.33;;
70545;SDS011;58098;51.680;5.134;2023-04-24T14:07:43;6.93;;;2.30;;
70545;SDS011;58098;51.680;5.134;2023-04-24T14:10:08;8.03;;;2.43;;
70545;SDS011;58098;51.680;5.134;2023-04-24T14:12:34;6.03;;;2.33;;
70545;SDS011;58098;51.680;5.134;2023-04-24T14:15:00;8.20;;;2.23;;
70545;SDS011;58098;51.680;5.134;2023-04-24T14:17:26;8.18;;;2.53;;
70545;SDS011;58098;51.680;5.134;2023-04-24T14:19:51;6.90;;;3.00;;
70545;SDS011;58098;51.680;5.134;2023-04-24T14:22:17;6.72;;;2.72;;
70545;SDS011;58098;51.680;5.134;2023-04-24T14:24:42;8.73;;;3.00;;
70545;SDS011;58098;51.680;5.134;2023-04-24T14:27:08;13.00;;;3.10;;
70545;SDS011;58098;51.680;5.134;2023-04-24T14:29:33;10.65;;;2.97;;
70545;SDS011;58098;51.680;5.134;2023-04-24T14:31:59;8.90;;;3.03;;
70545;SDS011;58098;51.680;5.134;2023-04-24T14:34:24;8.10;;;3.07;;
70545;SDS011;58098;51.680;5.134;2023-04-24T14:36:50;4.13;;;2.63;;
70545;SDS011;58098;51.680;5.134;2023-04-24T14:39:15;5.67;;;2.50;;
70545;SDS011;58098;51.680;5.134;2023-04-24T14:41:40;4.50;;;2.87;;
70545;SDS011;58098;51.680;5.134;2023-04-24T14:44:06;6.13;;;3.30;;
70545;SDS011;58098;51.680;5.134;2023-04-24T14:46:31;5.57;;;2.80;;